Time;durP1;ratioP1;P1;durP2;ratioP2;P2;SDS_P1;SDS_P2;PMS_P1;PMS_P2;Temp;Humidity;BMP_temperature;BMP_pressure;BME280_temperature;BME280_humidity;BME280_pressure;Samples;Min_cycle;Max_cycle;Signal;HPM_P1;HPM_P2
2022/12/31 00:00:39;;;;;;;80.70;39.80;;;;;;;1.34;100.00;98675.04;213121;1315;22572;-76
2022/12/31 00:05:41;;;;;;;97.50;42.10;;;;;;;1.36;100.00;98674.30;213116;1315;22463;-75
2022/12/31 00:10:43;;;;;;;83.10;37.60;;;;;;;1.39;100.00;98656.20;213275;1315;22497;-75
2022/12/31 00:15:45;;;;;;;84.30;37.60;;;;;;;1.44;100.00;98653.09;213215;1315;22502;-75
2022/12/31 00:20:47;;;;;;;90.30;38.70;;;;;;;1.49;100.00;98667.66;213215;1309;25433;-76
2022/12/31 00:25:48;;;;;;;69.70;32.30;;;;;;;1.51;100.00;98670.05;213288;1315;23799;-75
2022/12/31 00:30:50;;;;;;;71.20;31.60;;;;;;;1.53;100.00;98664.95;213224;1315;26414;-76
2022/12/31 00:35:52;;;;;;;62.20;27.90;;;;;;;1.54;100.00;98669.85;213091;1315;22595;-74
2022/12/31 00:40:53;;;;;;;61.10;29.60;;;;;;;1.57;100.00;98672.22;213205;1315;24484;-75
2022/12/31 00:45:55;;;;;;;58.00;27.70;;;;;;;1.64;100.00;98670.79;213200;1315;22701;-75
2022/12/31 00:50:58;;;;;;;52.00;26.30;;;;;;;1.74;100.00;98677.42;213326;1315;22497;-76
2022/12/31 00:56:10;;;;;;;49.20;23.00;;;;;;;1.88;100.00;98687.05;213167;1315;23785;-76
2022/12/31 01:01:20;;;;;;;41.50;19.50;;;;;;;2.11;100.00;98687.73;213302;1315;24466;-75
2022/12/31 01:06:22;;;;;;;48.30;22.00;;;;;;;2.31;100.00;98682.14;213095;1298;22547;-74
2022/12/31 01:11:28;;;;;;;44.10;21.90;;;;;;;2.45;100.00;98682.91;213193;1315;23170;-76
2022/12/31 01:16:47;;;;;;;50.20;22.10;;;;;;;2.59;100.00;98678.08;213515;1315;25281;-75
2022/12/31 01:21:50;;;;;;;37.90;19.40;;;;;;;2.70;100.00;98700.11;213251;1315;25321;-75
2022/12/31 01:26:54;;;;;;;37.60;18.70;;;;;;;2.83;100.00;98702.48;213088;1315;22835;-75
2022/12/31 01:31:56;;;;;;;33.70;17.30;;;;;;;2.98;100.00;98701.05;213235;1314;24377;-75
2022/12/31 01:36:58;;;;;;;28.50;14.50;;;;;;;3.21;100.00;98699.35;213500;1315;22472;-75
2022/12/31 01:42:00;;;;;;;25.30;12.70;;;;;;;3.46;100.00;98691.98;213252;1315;22924;-75
2022/12/31 01:47:04;;;;;;;21.90;10.50;;;;;;;3.72;100.00;98703.40;213297;1315;24728;-75
2022/12/31 01:52:16;;;;;;;18.50;10.10;;;;;;;4.03;100.00;98699.76;213158;1315;24280;-75
2022/12/31 01:57:18;;;;;;;13.20;8.20;;;;;;;4.30;100.00;98682.45;213271;1312;22497;-75
2022/12/31 02:02:20;;;;;;;13.10;7.40;;;;;;;4.51;100.00;98693.92;213186;1315;25270;-76
2022/12/31 02:07:23;;;;;;;16.30;7.40;;;;;;;4.71;100.00;98708.38;213253;1315;24294;-75
2022/12/31 02:12:24;;;;;;;14.10;7.40;;;;;;;4.92;100.00;98701.82;213063;1315;22550;-76
2022/12/31 02:17:39;;;;;;;16.80;8.40;;;;;;;5.06;100.00;98690.95;213380;1315;22471;-78
2022/12/31 02:23:05;;;;;;;15.20;7.30;;;;;;;5.14;100.00;98675.17;213336;1315;22493;-75
2022/12/31 02:28:38;;;;;;;12.00;7.10;;;;;;;5.24;100.00;98679.27;213442;1315;26627;-75
2022/12/31 02:33:49;;;;;;;13.50;6.10;;;;;;;5.37;100.00;98684.52;213401;1315;26403;-77
2022/12/31 02:38:51;;;;;;;12.10;6.80;;;;;;;5.47;100.00;98667.05;213305;1315;24353;-75
2022/12/31 02:43:53;;;;;;;12.20;6.90;;;;;;;5.54;100.00;98654.86;213198;1314;22504;-75
2022/12/31 02:49:16;;;;;;;13.80;7.10;;;;;;;5.58;100.00;98641.33;213425;1315;22502;-76
2022/12/31 02:54:29;;;;;;;12.30;6.70;;;;;;;5.55;100.00;98645.46;213379;1315;23909;-75
2022/12/31 03:05:22;;;;;;;12.50;6.70;;;;;;;5.61;100.00;98695.34;213367;1315;25323;-75
2022/12/31 03:10:24;;;;;;;13.10;7.10;;;;;;;5.70;100.00;98695.18;213360;1315;23957;-75
2022/12/31 03:15:29;;;;;;;11.60;6.40;;;;;;;5.76;100.00;98691.75;213327;1315;22551;-76
2022/12/31 03:25:55;;;;;;;11.80;6.60;;;;;;;5.92;100.00;98689.64;213458;1315;22505;-75
2022/12/31 03:31:01;;;;;;;12.40;6.90;;;;;;;6.01;100.00;98686.79;213256;1315;22887;-76
2022/12/31 03:36:06;;;;;;;12.60;6.30;;;;;;;6.08;100.00;98681.23;213410;1315;23352;-75
2022/12/31 03:41:09;;;;;;;8.10;5.90;;;;;;;6.13;100.00;98686.45;213459;1315;22465;-76
2022/12/31 03:46:11;;;;;;;10.00;5.80;;;;;;;6.18;100.00;98687.95;213509;1315;22581;-75
2022/12/31 03:51:13;;;;;;;10.80;6.70;;;;;;;6.23;100.00;98701.92;213070;1303;22521;-76
2022/12/31 03:56:15;;;;;;;9.40;5.70;;;;;;;6.24;100.00;98698.20;213406;1314;22495;-76
2022/12/31 04:01:16;;;;;;;11.10;6.20;;;;;;;6.25;100.00;98707.14;213353;1315;22635;-76
2022/12/31 04:06:18;;;;;;;11.10;6.20;;;;;;;6.27;100.00;98715.77;213447;1315;24373;-75
2022/12/31 04:11:20;;;;;;;12.70;6.70;;;;;;;6.30;100.00;98721.20;213439;1310;22463;-75
2022/12/31 04:16:22;;;;;;;13.00;6.00;;;;;;;6.33;100.00;98726.96;213317;1315;22483;-76
2022/12/31 04:21:24;;;;;;;12.10;6.40;;;;;;;6.35;100.00;98718.34;213159;1315;25362;-75
2022/12/31 04:26:30;;;;;;;11.30;6.10;;;;;;;6.35;100.00;98721.86;213054;1315;25463;-75
2022/12/31 04:31:32;;;;;;;12.20;5.80;;;;;;;6.36;100.00;98727.39;213269;1315;24361;-76
2022/12/31 04:36:34;;;;;;;9.50;5.30;;;;;;;6.33;100.00;98734.14;213431;1315;22547;-75
2022/12/31 04:41:36;;;;;;;11.90;6.50;;;;;;;6.33;100.00;98743.40;213456;1314;23778;-76
2022/12/31 04:46:38;;;;;;;10.90;5.70;;;;;;;6.37;100.00;98755.08;213340;1315;22531;-77
2022/12/31 04:51:40;;;;;;;8.80;5.40;;;;;;;6.40;100.00;98756.51;213341;1314;26187;-75
2022/12/31 04:56:42;;;;;;;10.70;5.90;;;;;;;6.44;100.00;98758.45;213364;1310;22496;-76
2022/12/31 05:01:43;;;;;;;9.00;5.50;;;;;;;6.50;100.00;98753.09;213218;1315;24133;-75
2022/12/31 05:06:45;;;;;;;8.80;5.30;;;;;;;6.57;100.00;98750.77;213396;1315;22603;-76
2022/12/31 05:11:47;;;;;;;10.70;5.60;;;;;;;6.59;100.00;98754.91;213128;1315;22639;-75
2022/12/31 05:16:50;;;;;;;10.90;5.50;;;;;;;6.52;100.00;98750.52;213152;1315;25486;-75
2022/12/31 05:27:12;;;;;;;8.50;5.10;;;;;;;6.39;100.00;98736.82;213352;1315;22490;-76
2022/12/31 05:32:14;;;;;;;9.00;5.00;;;;;;;6.37;100.00;98734.38;213274;1312;22489;-76
2022/12/31 05:37:15;;;;;;;9.10;4.80;;;;;;;6.36;100.00;98743.77;213378;1315;22599;-76
2022/12/31 05:42:17;;;;;;;7.30;4.30;;;;;;;6.35;100.00;98743.88;213183;1314;25153;-75
2022/12/31 05:47:19;;;;;;;9.90;5.00;;;;;;;6.39;100.00;98746.52;213113;1315;24284;-75
2022/12/31 05:52:21;;;;;;;8.30;5.40;;;;;;;6.46;100.00;98742.38;213282;1303;22636;-76
2022/12/31 05:57:23;;;;;;;7.10;5.10;;;;;;;6.50;100.00;98758.40;213423;1315;25248;-75
2022/12/31 06:02:25;;;;;;;9.80;5.20;;;;;;;6.54;100.00;98766.52;213155;1315;22622;-75
2022/12/31 06:07:27;;;;;;;9.40;5.60;;;;;;;6.59;100.00;98776.11;213172;1314;22585;-76
2022/12/31 06:12:29;;;;;;;9.80;5.20;;;;;;;6.60;100.00;98767.42;213319;1314;24498;-76
2022/12/31 06:17:31;;;;;;;10.80;5.90;;;;;;;6.55;100.00;98765.40;213412;1314;24271;-76
2022/12/31 06:22:33;;;;;;;8.80;5.60;;;;;;;6.49;100.00;98758.30;213117;1315;25354;-75
2022/12/31 06:27:35;;;;;;;8.80;5.40;;;;;;;6.46;100.00;98749.98;213402;1314;22462;-75
2022/12/31 06:32:38;;;;;;;8.90;5.30;;;;;;;6.45;100.00;98756.04;213215;1310;24357;-73
2022/12/31 06:37:39;;;;;;;9.40;5.50;;;;;;;6.42;100.00;98761.09;213399;1315;24362;-77
2022/12/31 06:42:41;;;;;;;10.40;5.60;;;;;;;6.41;100.00;98766.83;213395;1314;23296;-75
2022/12/31 06:47:43;;;;;;;9.10;5.30;;;;;;;6.42;100.00;98770.52;213246;1315;22624;-75
2022/12/31 06:52:45;;;;;;;9.00;5.30;;;;;;;6.44;100.00;98779.36;213304;1314;22608;-76
2022/12/31 06:57:47;;;;;;;12.30;6.50;;;;;;;6.47;100.00;98791.45;213485;1315;22608;-75
2022/12/31 07:03:08;;;;;;;10.50;5.50;;;;;;;6.48;100.00;98792.67;213155;1315;22504;-76
2022/12/31 07:08:31;;;;;;;11.20;6.20;;;;;;;6.49;100.00;98806.63;213426;1314;22581;-76
2022/12/31 07:13:52;;;;;;;8.40;5.00;;;;;;;6.54;100.00;98807.88;213286;1315;22475;-76
2022/12/31 07:19:34;;;;;;;11.70;5.70;;;;;;;6.60;100.00;98806.29;213447;1315;24132;-76
2022/12/31 07:24:36;;;;;;;8.40;4.10;;;;;;;6.64;100.00;98801.52;213189;1315;23782;-77
2022/12/31 07:30:00;;;;;;;7.70;4.80;;;;;;;6.71;100.00;98802.13;213397;1315;22611;-76
2022/12/31 07:35:11;;;;;;;7.70;4.70;;;;;;;6.80;100.00;98813.86;213236;1310;22497;-75
2022/12/31 07:40:50;;;;;;;8.70;5.00;;;;;;;6.88;100.00;98817.29;213191;1315;22482;-76
2022/12/31 07:46:10;;;;;;;10.20;5.70;;;;;;;6.95;100.00;98817.94;213222;1315;22473;-76
2022/12/31 07:51:13;;;;;;;9.00;4.90;;;;;;;7.02;100.00;98823.55;213264;1315;22547;-76
2022/12/31 07:56:14;;;;;;;11.10;5.50;;;;;;;7.07;100.00;98829.32;213473;1315;22480;-75
2022/12/31 08:01:33;;;;;;;9.90;4.90;;;;;;;7.13;100.00;98829.96;213458;1315;22485;-76
2022/12/31 08:06:47;;;;;;;8.30;4.70;;;;;;;7.22;100.00;98840.48;213451;1314;22491;-75
2022/12/31 08:11:57;;;;;;;8.50;5.00;;;;;;;7.32;100.00;98841.84;213254;1315;25429;-76
2022/12/31 08:16:59;;;;;;;10.90;5.80;;;;;;;7.44;100.00;98829.58;213349;1315;23748;-76
2022/12/31 08:22:22;;;;;;;9.30;4.70;;;;;;;7.69;100.00;98826.86;213162;1312;22477;-76
2022/12/31 08:27:52;;;;;;;8.60;5.10;;;;;;;7.84;100.00;98831.49;213338;1315;23852;-76
2022/12/31 08:33:17;;;;;;;8.50;4.80;;;;;;;7.97;99.91;98846.88;213441;1315;23797;-76
2022/12/31 08:38:44;;;;;;;8.20;4.90;;;;;;;8.07;99.57;98854.88;213254;1315;24334;-76
2022/12/31 08:44:04;;;;;;;7.70;4.50;;;;;;;8.11;99.26;98855.51;213416;1314;22511;-75
2022/12/31 08:49:08;;;;;;;11.10;5.50;;;;;;;8.17;99.27;98865.91;213504;1315;22763;-75
2022/12/31 08:54:11;;;;;;;8.50;5.20;;;;;;;8.22;99.05;98858.15;213292;1315;22482;-77
2022/12/31 08:59:41;;;;;;;9.40;5.10;;;;;;;8.24;98.97;98851.00;213238;1303;22494;-74
2022/12/31 09:04:58;;;;;;;9.60;5.40;;;;;;;8.27;99.02;98835.24;213225;1315;24399;-76
2022/12/31 09:10:19;;;;;;;8.50;4.90;;;;;;;8.33;98.94;98837.46;213251;1308;25263;-76
2022/12/31 09:15:32;;;;;;;7.80;5.20;;;;;;;8.41;99.09;98836.42;213410;1315;22477;-76
2022/12/31 09:20:35;;;;;;;6.70;4.70;;;;;;;8.50;99.01;98845.98;213327;1315;22494;-75
2022/12/31 09:26:21;;;;;;;6.90;4.80;;;;;;;8.67;99.19;98837.10;213378;1315;25220;-76
2022/12/31 09:31:47;;;;;;;7.40;4.20;;;;;;;8.90;99.20;98829.83;213250;1315;22619;-76
2022/12/31 09:37:03;;;;;;;8.00;4.00;;;;;;;9.08;98.51;98830.16;213183;1314;22924;-75
2022/12/31 09:42:50;;;;;;;7.40;4.20;;;;;;;9.21;98.02;98832.63;213417;1315;22486;-75
2022/12/31 09:48:34;;;;;;;6.50;3.80;;;;;;;9.35;97.74;98841.58;213370;1314;22474;-75
2022/12/31 09:53:45;;;;;;;5.80;4.10;;;;;;;9.44;97.28;98828.70;213594;1315;22486;-75
2022/12/31 09:59:06;;;;;;;5.60;3.50;;;;;;;9.44;96.85;98824.52;213378;1310;22467;-76
2022/12/31 10:04:26;;;;;;;;;;;;;;;9.44;96.92;98832.59;213590;1315;22513;-74
2022/12/31 10:10:02;;;;;;;5.40;3.30;;;;;;;9.48;96.95;98824.32;213636;1315;22489;-76
2022/12/31 10:15:33;;;;;;;7.80;4.30;;;;;;;9.63;97.09;98816.28;213313;1315;25227;-75
2022/12/31 10:21:00;;;;;;;6.00;3.80;;;;;;;9.78;96.43;98827.54;213119;1315;25430;-75
2022/12/31 10:26:04;;;;;;;6.90;3.60;;;;;;;9.90;96.05;98824.87;213147;1303;22479;-76
2022/12/31 10:31:33;;;;;;;6.10;4.10;;;;;;;9.95;95.91;98815.41;213451;1314;22478;-76
2022/12/31 10:36:50;;;;;;;5.70;3.30;;;;;;;9.94;95.83;98817.81;213572;1315;25223;-76
2022/12/31 10:42:04;;;;;;;6.60;3.70;;;;;;;10.06;96.00;98816.80;213406;1314;179012;-75
2022/12/31 10:47:51;;;;;;;7.10;3.30;;;;;;;10.31;95.69;98822.21;213591;1315;22496;-75
2022/12/31 10:53:10;;;;;;;5.10;3.30;;;;;;;10.42;95.15;98836.40;213185;1315;22509;-75
2022/12/31 10:58:33;;;;;;;5.70;3.90;;;;;;;10.49;94.79;98837.51;213217;1315;24289;-76
2022/12/31 11:03:57;;;;;;;5.90;3.90;;;;;;;10.60;94.48;98837.32;213475;1315;22502;-75
2022/12/31 11:09:23;;;;;;;6.30;3.30;;;;;;;10.70;94.02;98833.55;213465;1310;22490;-76
2022/12/31 11:15:06;;;;;;;6.00;3.50;;;;;;;10.76;93.93;98829.66;213259;1315;22530;-76
2022/12/31 11:20:30;;;;;;;6.40;3.40;;;;;;;10.76;93.22;98825.85;213222;1315;22486;-75
2022/12/31 11:25:37;;;;;;;6.30;3.40;;;;;;;10.72;93.14;98818.04;213227;1310;23280;-76
2022/12/31 11:31:18;;;;;;;5.80;3.20;;;;;;;10.68;93.25;98821.63;213191;1310;22526;-74
2022/12/31 11:36:36;;;;;;;5.90;3.60;;;;;;;10.69;93.49;98826.92;213340;1315;24083;-76
2022/12/31 11:41:49;;;;;;;6.30;3.60;;;;;;;10.68;93.57;98835.02;213205;1315;22756;-75
2022/12/31 11:46:57;;;;;;;7.30;3.90;;;;;;;10.69;93.21;98830.41;213168;1315;25441;-74
2022/12/31 11:52:21;;;;;;;7.10;3.70;;;;;;;10.75;93.34;98830.17;213512;1315;22482;-76
2022/12/31 11:57:33;;;;;;;5.70;3.90;;;;;;;10.82;93.11;98817.86;213236;1315;22475;-74
2022/12/31 12:02:42;;;;;;;6.60;3.80;;;;;;;10.83;92.98;98809.63;213113;1315;22531;-75
2022/12/31 12:07:45;;;;;;;6.30;3.40;;;;;;;10.85;92.79;98814.17;213327;1315;24287;-77
2022/12/31 12:12:48;;;;;;;6.40;3.50;;;;;;;10.88;92.56;98809.52;213032;1315;25607;-76
2022/12/31 12:18:00;;;;;;;5.80;3.60;;;;;;;10.89;92.67;98802.59;213121;1315;24258;-75
2022/12/31 12:23:14;;;;;;;6.60;3.70;;;;;;;10.86;92.24;98793.54;213627;1315;25391;-76
2022/12/31 12:28:22;;;;;;;5.90;3.60;;;;;;;10.81;92.52;98796.98;213193;1315;23897;-75
2022/12/31 12:33:25;;;;;;;6.60;4.20;;;;;;;10.75;92.43;98803.38;213332;1315;24453;-75
2022/12/31 12:38:26;;;;;;;6.20;3.90;;;;;;;10.72;92.57;98807.59;213163;1315;23771;-75
2022/12/31 12:43:31;;;;;;;7.60;4.20;;;;;;;10.70;92.64;98804.08;213090;1315;24370;-75
2022/12/31 12:48:43;;;;;;;7.50;4.50;;;;;;;10.67;92.77;98790.41;213575;1315;23032;-76
2022/12/31 12:54:13;;;;;;;7.30;4.30;;;;;;;10.65;92.96;98778.21;213232;1315;25224;-76
2022/12/31 12:59:42;;;;;;;6.70;4.20;;;;;;;10.66;93.31;98778.48;213559;1315;22481;-76
2022/12/31 13:05:20;;;;;;;6.20;4.10;;;;;;;10.68;93.35;98771.48;213335;1315;22485;-76
2022/12/31 13:11:07;;;;;;;5.30;3.30;;;;;;;10.70;93.26;98770.54;213057;1315;22544;-74
2022/12/31 13:16:39;;;;;;;8.30;4.10;;;;;;;10.73;93.41;98778.00;213460;1315;25574;-76
2022/12/31 13:21:54;;;;;;;6.60;3.80;;;;;;;10.75;93.20;98786.77;213175;1315;24096;-75
2022/12/31 13:27:03;;;;;;;7.40;3.80;;;;;;;10.78;93.25;98785.27;213485;1315;25324;-74
2022/12/31 13:32:09;;;;;;;7.10;4.00;;;;;;;10.81;93.15;98783.25;213415;1312;22526;-76
2022/12/31 13:37:38;;;;;;;8.00;3.80;;;;;;;10.87;93.02;98785.27;213428;1315;22516;-76
2022/12/31 13:42:53;;;;;;;8.20;3.70;;;;;;;10.93;92.58;98793.48;213268;1315;22552;-75
2022/12/31 13:48:04;;;;;;;7.80;4.50;;;;;;;11.00;91.91;98806.61;213307;1315;24272;-75
2022/12/31 13:53:19;;;;;;;8.90;4.20;;;;;;;11.07;91.65;98801.48;213377;1315;22624;-75
2022/12/31 13:58:39;;;;;;;9.50;4.40;;;;;;;11.09;91.37;98803.11;213243;1315;24274;-75
2022/12/31 14:04:12;;;;;;;8.60;4.60;;;;;;;11.06;91.20;98802.98;213233;1315;25359;-76
2022/12/31 14:09:27;;;;;;;6.90;4.20;;;;;;;11.01;91.34;98805.59;213564;1315;25281;-75
2022/12/31 14:14:44;;;;;;;7.60;4.40;;;;;;;10.97;91.47;98821.13;213468;1315;22618;-76
2022/12/31 14:19:54;;;;;;;7.60;4.60;;;;;;;10.94;91.32;98820.54;213387;1315;22478;-76
2022/12/31 14:24:59;;;;;;;8.50;5.00;;;;;;;10.91;91.70;98814.04;213213;1315;25331;-76
2022/12/31 14:30:26;;;;;;;9.50;5.00;;;;;;;10.86;91.82;98816.69;213394;1315;22487;-76
2022/12/31 14:35:36;;;;;;;7.60;4.30;;;;;;;10.83;91.89;98817.58;213366;1315;22476;-75
2022/12/31 14:41:11;;;;;;;8.50;4.80;;;;;;;10.78;92.02;98815.34;213258;1299;22614;-76
2022/12/31 14:46:32;;;;;;;9.10;4.90;;;;;;;10.75;92.14;98815.96;213406;1315;24434;-76
2022/12/31 14:51:34;;;;;;;;;;;;;;;10.73;92.36;98817.53;213414;1315;23818;-75
2022/12/31 14:56:40;;;;;;;7.00;4.30;;;;;;;10.73;92.54;98818.02;213505;1315;22488;-76
2022/12/31 15:01:45;;;;;;;8.40;4.20;;;;;;;10.72;92.43;98824.70;213393;1315;22422;-75
2022/12/31 15:07:03;;;;;;;7.00;4.20;;;;;;;10.74;92.39;98831.03;213236;1315;25347;-74
2022/12/31 15:12:23;;;;;;;6.00;3.70;;;;;;;10.77;92.28;98825.11;213124;1315;22477;-75
2022/12/31 15:17:34;;;;;;;8.40;4.20;;;;;;;10.78;92.29;98827.39;213343;1314;24135;-74
2022/12/31 15:22:39;;;;;;;7.20;4.20;;;;;;;10.78;92.21;98830.77;213572;1314;24464;-76
2022/12/31 15:27:46;;;;;;;6.80;3.80;;;;;;;10.79;92.38;98836.39;213456;1315;24126;-74
2022/12/31 15:32:47;;;;;;;7.00;4.10;;;;;;;10.77;92.48;98844.34;213311;1315;22480;-75
2022/12/31 15:38:15;;;;;;;8.20;4.40;;;;;;;10.75;92.53;98857.54;213350;1315;22631;-76
2022/12/31 15:43:23;;;;;;;7.20;3.90;;;;;;;10.74;92.79;98855.79;213319;1315;23249;-75
2022/12/31 15:48:43;;;;;;;6.80;3.80;;;;;;;10.73;92.82;98866.64;213547;1314;22548;-75
2022/12/31 15:53:55;;;;;;;8.80;4.30;;;;;;;10.70;92.64;98869.56;213267;1315;24309;-75
2022/12/31 15:59:00;;;;;;;8.10;4.70;;;;;;;10.68;92.83;98867.39;213182;1310;22497;-75
2022/12/31 16:04:06;;;;;;;8.90;4.90;;;;;;;10.66;93.06;98863.45;213209;1315;22973;-75
2022/12/31 16:09:34;;;;;;;10.40;5.70;;;;;;;10.65;92.92;98861.16;213222;1315;22587;-76
2022/12/31 16:14:43;;;;;;;10.60;5.30;;;;;;;10.64;93.18;98874.13;213303;1315;22523;-76
2022/12/31 16:19:45;;;;;;;8.20;4.70;;;;;;;10.68;93.06;98875.42;213261;1315;22608;-75
2022/12/31 16:24:56;;;;;;;7.70;4.60;;;;;;;10.72;92.81;98875.39;213143;1315;25321;-75
2022/12/31 16:30:30;;;;;;;8.10;5.00;;;;;;;10.79;92.82;98875.13;213291;1315;22481;-76
2022/12/31 16:35:35;;;;;;;6.90;4.00;;;;;;;10.85;92.69;98888.77;213192;1315;22572;-75
2022/12/31 16:40:39;;;;;;;9.00;4.80;;;;;;;10.93;92.52;98898.16;213400;1315;23196;-76
2022/12/31 16:45:41;;;;;;;8.00;4.30;;;;;;;10.98;92.43;98900.91;213863;1315;22471;-75
2022/12/31 16:50:45;;;;;;;8.70;4.50;;;;;;;11.01;92.17;98901.70;213157;1315;22485;-74
2022/12/31 16:56:08;;;;;;;8.70;4.10;;;;;;;11.05;91.96;98899.30;213383;1315;24677;-75
2022/12/31 17:01:17;;;;;;;10.60;4.50;;;;;;;11.09;91.75;98916.42;213028;1315;23775;-75
2022/12/31 17:06:21;;;;;;;13.40;6.70;;;;;;;11.09;91.81;98911.04;213046;1314;22525;-76
2022/12/31 17:11:29;;;;;;;9.00;4.70;;;;;;;11.07;91.67;98906.52;213406;1315;24414;-76
2022/12/31 17:16:33;;;;;;;8.90;4.90;;;;;;;11.06;91.67;98905.95;213494;1312;22513;-75
2022/12/31 17:21:35;;;;;;;10.40;5.20;;;;;;;11.05;91.54;98901.08;213353;1315;23214;-76
2022/12/31 17:26:37;;;;;;;8.90;5.00;;;;;;;11.03;91.42;98903.29;213269;1315;22668;-76
2022/12/31 17:31:41;;;;;;;5.20;3.40;;;;;;;10.99;91.49;98904.20;213546;1315;22480;-76
2022/12/31 17:36:58;;;;;;;8.20;4.60;;;;;;;10.95;91.73;98917.06;213359;1315;24734;-75
2022/12/31 17:42:00;;;;;;;11.20;5.00;;;;;;;10.92;91.64;98925.03;213201;1315;22629;-76
2022/12/31 17:47:03;;;;;;;7.70;4.70;;;;;;;10.89;91.78;98933.66;213163;1315;26962;-75
2022/12/31 17:52:10;;;;;;;8.00;5.10;;;;;;;10.86;91.75;98934.75;212967;1315;22445;-76
2022/12/31 17:57:26;;;;;;;8.80;4.50;;;;;;;10.85;91.71;98928.77;213278;1315;22502;-75
2022/12/31 18:02:28;;;;;;;8.90;4.90;;;;;;;10.81;91.80;98928.27;213245;1315;24303;-76
2022/12/31 18:07:30;;;;;;;9.20;5.30;;;;;;;10.76;91.71;98929.02;213354;1315;22476;-75
2022/12/31 18:12:34;;;;;;;11.10;6.00;;;;;;;10.76;91.83;98938.14;213346;1315;22493;-75
2022/12/31 18:17:36;;;;;;;10.20;5.60;;;;;;;10.78;91.70;98936.51;213636;1315;22506;-75
2022/12/31 18:22:40;;;;;;;9.80;5.50;;;;;;;10.76;91.68;98938.83;213212;1315;22674;-76
2022/12/31 18:27:41;;;;;;;9.80;5.10;;;;;;;10.76;91.85;98941.41;213477;1315;22482;-75
2022/12/31 18:32:44;;;;;;;10.60;5.00;;;;;;;10.76;91.72;98943.02;213533;1315;22767;-76
2022/12/31 18:37:46;;;;;;;9.70;5.20;;;;;;;10.76;91.68;98935.77;213292;1314;22488;-76
2022/12/31 18:42:48;;;;;;;10.60;5.50;;;;;;;10.77;91.64;98936.69;213233;1315;24369;-75
2022/12/31 18:47:50;;;;;;;11.80;5.80;;;;;;;10.77;91.61;98937.65;213204;1315;22917;-75
2022/12/31 18:52:51;;;;;;;11.80;5.80;;;;;;;10.81;91.46;98941.19;212980;1315;24399;-76
2022/12/31 18:57:53;;;;;;;10.10;5.90;;;;;;;10.84;90.93;98949.73;213141;1315;23916;-76
2022/12/31 19:02:55;;;;;;;11.70;5.80;;;;;;;10.87;90.78;98950.29;213554;1313;22951;-75
2022/12/31 19:07:57;;;;;;;11.90;6.10;;;;;;;10.88;90.76;98950.92;213303;1309;22591;-75
2022/12/31 19:12:59;;;;;;;11.90;6.20;;;;;;;10.92;90.19;98953.13;213368;1315;24353;-75
2022/12/31 19:18:02;;;;;;;8.40;5.10;;;;;;;10.98;89.87;98953.91;213090;1315;22565;-76
2022/12/31 19:23:04;;;;;;;9.90;5.80;;;;;;;11.03;89.78;98955.95;213192;1315;22629;-76
2022/12/31 19:28:14;;;;;;;9.50;5.30;;;;;;;11.06;89.19;98956.55;213350;1315;25287;-75
2022/12/31 19:33:17;;;;;;;9.10;4.50;;;;;;;11.08;88.81;98940.34;213165;1315;22486;-75
2022/12/31 19:38:22;;;;;;;6.50;4.50;;;;;;;11.11;88.39;98946.30;212988;1315;22551;-76
2022/12/31 19:43:24;;;;;;;8.40;4.60;;;;;;;11.16;88.17;98953.80;213089;1315;25368;-75
2022/12/31 19:48:26;;;;;;;9.50;4.30;;;;;;;11.22;87.94;98951.73;213127;1315;25391;-75
2022/12/31 19:53:33;;;;;;;9.20;5.10;;;;;;;11.24;87.78;98951.72;213149;1315;25322;-75
2022/12/31 19:58:35;;;;;;;8.70;3.80;;;;;;;11.25;87.46;98950.05;213392;1315;24114;-75
2022/12/31 20:03:37;;;;;;;7.10;4.30;;;;;;;11.27;86.97;98954.73;213184;1315;23169;-75
2022/12/31 20:08:42;;;;;;;8.00;4.50;;;;;;;11.26;87.28;98962.05;213248;1315;25325;-75
2022/12/31 20:13:46;;;;;;;7.70;4.10;;;;;;;11.23;87.29;98966.91;213138;1315;24314;-75
2022/12/31 20:18:49;;;;;;;7.10;3.80;;;;;;;11.19;87.27;98960.09;213198;1310;22502;-75
2022/12/31 20:23:52;;;;;;;6.70;3.80;;;;;;;11.11;87.59;98952.58;213220;1315;22494;-77
2022/12/31 20:28:54;;;;;;;5.80;3.90;;;;;;;11.04;87.63;98948.38;213238;1315;22482;-75
2022/12/31 20:33:56;;;;;;;7.10;4.30;;;;;;;10.96;87.65;98952.92;213137;1309;22494;-75
2022/12/31 20:38:58;;;;;;;9.00;5.90;;;;;;;10.91;87.82;98953.62;213257;1315;23105;-75
2022/12/31 20:44:00;;;;;;;7.70;4.60;;;;;;;10.86;87.53;98946.12;213413;1306;22490;-75
2022/12/31 20:49:03;;;;;;;7.10;4.70;;;;;;;10.85;87.38;98941.36;213040;1315;26029;-75
2022/12/31 20:54:08;;;;;;;6.90;4.50;;;;;;;10.87;87.25;98938.40;213189;1315;22531;-76
2022/12/31 20:59:10;;;;;;;7.70;4.50;;;;;;;10.90;86.86;98933.96;213340;1315;24366;-75
2022/12/31 21:04:12;;;;;;;7.50;4.40;;;;;;;10.94;86.96;98920.51;213014;1314;22641;-76
2022/12/31 21:09:14;;;;;;;8.00;4.80;;;;;;;10.94;86.91;98924.64;213315;1315;22584;-75
2022/12/31 21:14:16;;;;;;;6.90;4.50;;;;;;;10.93;86.57;98920.41;213242;1315;25278;-75
2022/12/31 21:19:18;;;;;;;6.90;4.50;;;;;;;10.89;86.58;98929.14;213373;1315;22544;-74
2022/12/31 21:24:19;;;;;;;7.60;4.40;;;;;;;10.86;86.65;98937.81;213338;1315;22564;-75
2022/12/31 21:29:24;;;;;;;9.30;4.70;;;;;;;10.86;86.79;98936.38;213223;1315;22495;-76
2022/12/31 21:34:33;;;;;;;7.60;4.40;;;;;;;10.86;86.51;98946.48;213489;1315;25303;-75
2022/12/31 21:39:35;;;;;;;6.60;4.80;;;;;;;10.85;86.32;98952.40;213565;1315;22901;-75
2022/12/31 21:44:36;;;;;;;6.40;4.10;;;;;;;10.85;86.41;98951.92;213260;1315;24029;-75
2022/12/31 21:49:38;;;;;;;8.30;4.90;;;;;;;10.79;86.22;98958.59;213083;1315;22491;-75
2022/12/31 22:05:46;;;;;;;7.40;4.70;;;;;;;10.57;86.54;98979.82;213261;1315;22476;-76
2022/12/31 22:10:48;;;;;;;9.70;5.40;;;;;;;10.50;86.54;98983.30;213590;1309;22504;-75
2022/12/31 22:15:56;;;;;;;10.00;5.30;;;;;;;10.47;86.79;98982.58;213365;1315;22572;-76
2022/12/31 22:21:15;;;;;;;12.40;6.30;;;;;;;10.46;86.52;98982.02;213188;1315;24296;-77
2022/12/31 22:26:24;;;;;;;11.00;6.20;;;;;;;10.41;86.64;98977.12;213133;1315;24304;-75
2022/12/31 22:31:31;;;;;;;12.50;5.70;;;;;;;10.36;86.68;98981.60;213126;1315;22542;-76
2022/12/31 22:36:33;;;;;;;10.50;5.60;;;;;;;10.33;86.74;98983.44;213404;1315;22477;-76
2022/12/31 22:41:35;;;;;;;12.10;6.80;;;;;;;10.26;86.70;98986.85;213272;1313;147861;-75
2022/12/31 22:46:37;;;;;;;8.80;5.60;;;;;;;10.21;86.95;98981.81;213320;1315;22503;-76
2022/12/31 22:51:39;;;;;;;11.10;6.70;;;;;;;10.15;86.88;98984.60;213486;1315;22492;-76
2022/12/31 22:57:00;;;;;;;14.10;6.90;;;;;;;10.11;87.11;98988.27;213279;1315;22607;-75
2022/12/31 23:02:01;;;;;;;27.80;16.50;;;;;;;10.13;87.23;98987.23;213243;1315;22610;-76
2022/12/31 23:07:03;;;;;;;36.30;20.70;;;;;;;10.13;87.29;98988.09;213458;1315;24285;-76
2022/12/31 23:12:07;;;;;;;21.80;11.10;;;;;;;10.14;87.14;98989.00;213159;1314;24710;-77
2022/12/31 23:27:59;;;;;;;17.20;9.70;;;;;;;10.12;87.15;98983.77;213412;1314;27362;-74
2022/12/31 23:33:01;;;;;;;17.50;9.90;;;;;;;10.18;87.16;98989.02;213579;1315;24081;-76
2022/12/31 23:38:03;;;;;;;15.10;10.20;;;;;;;10.24;86.94;98993.62;213179;1315;23392;-76
2022/12/31 23:43:06;;;;;;;17.00;10.30;;;;;;;10.30;86.58;98996.26;213392;1315;25012;-75
2022/12/31 23:48:08;;;;;;;20.70;11.40;;;;;;;10.33;86.30;99000.95;213157;1315;22478;-75
2022/12/31 23:53:10;;;;;;;17.10;10.20;;;;;;;10.32;86.22;99001.31;213289;1315;22643;-77
2022/12/31 23:58:12;;;;;;;18.70;10.90;;;;;;;10.32;86.36;98995.77;213396;1315;25490;-76
